sensor_id;sensor_type;location;lat;lon;timestamp;P1;durP1;ratioP1;P2;durP2;ratioP2
26963;SDS011;14521;48.148;-1.656;2023-08-21T00:00:21;1.90;;;0.40;;
26963;SDS011;14521;48.148;-1.656;2023-08-21T00:03:43;3.45;;;0.50;;
26963;SDS011;14521;48.148;-1.656;2023-08-21T00:07:05;5.97;;;0.50;;
26963;SDS011;14521;48.148;-1.656;2023-08-21T00:10:29;3.88;;;0.30;;
26963;SDS011;14521;48.148;-1.656;2023-08-21T00:13:52;2.72;;;0.40;;
26963;SDS011;14521;48.148;-1.656;2023-08-21T00:17:14;5.20;;;0.60;;
26963;SDS011;14521;48.148;-1.656;2023-08-21T00:20:36;0.90;;;0.28;;
26963;SDS011;14521;48.148;-1.656;2023-08-21T00:23:58;2.65;;;0.40;;
26963;SDS011;14521;48.148;-1.656;2023-08-21T00:27:21;3.72;;;0.45;;
26963;SDS011;14521;48.148;-1.656;2023-08-21T00:30:43;1.25;;;0.30;;
26963;SDS011;14521;48.148;-1.656;2023-08-21T00:34:05;2.85;;;0.40;;
26963;SDS011;14521;48.148;-1.656;2023-08-21T00:37:28;4.20;;;0.30;;
26963;SDS011;14521;48.148;-1.656;2023-08-21T00:40:50;3.38;;;0.43;;
26963;SDS011;14521;48.148;-1.656;2023-08-21T00:44:13;5.32;;;0.52;;
26963;SDS011;14521;48.148;-1.656;2023-08-21T00:47:35;6.20;;;0.60;;
26963;SDS011;14521;48.148;-1.656;2023-08-21T00:50:58;3.45;;;0.50;;
26963;SDS011;14521;48.148;-1.656;2023-08-21T00:54:20;0.90;;;0.30;;
26963;SDS011;14521;48.148;-1.656;2023-08-21T00:57:43;1.67;;;0.35;;
26963;SDS011;14521;48.148;-1.656;2023-08-21T01:01:05;0.77;;;0.30;;
26963;SDS011;14521;48.148;-1.656;2023-08-21T01:04:28;0.63;;;0.32;;
26963;SDS011;14521;48.148;-1.656;2023-08-21T01:07:52;5.60;;;0.80;;
26963;SDS011;14521;48.148;-1.656;2023-08-21T01:11:21;5.32;;;1.02;;
26963;SDS011;14521;48.148;-1.656;2023-08-21T01:14:59;4.18;;;0.43;;
26963;SDS011;14521;48.148;-1.656;2023-08-21T01:18:25;2.67;;;0.60;;
26963;SDS011;14521;48.148;-1.656;2023-08-21T01:21:48;1.50;;;0.40;;
26963;SDS011;14521;48.148;-1.656;2023-08-21T01:25:11;2.28;;;0.30;;
26963;SDS011;14521;48.148;-1.656;2023-08-21T01:28:34;1.00;;;0.32;;
26963;SDS011;14521;48.148;-1.656;2023-08-21T01:35:58;3.83;;;0.40;;
26963;SDS011;14521;48.148;-1.656;2023-08-21T01:39:22;5.28;;;0.65;;
26963;SDS011;14521;48.148;-1.656;2023-08-21T01:42:45;2.70;;;0.50;;
26963;SDS011;14521;48.148;-1.656;2023-08-21T01:46:08;1.13;;;0.30;;
26963;SDS011;14521;48.148;-1.656;2023-08-21T01:49:31;3.15;;;0.60;;
26963;SDS011;14521;48.148;-1.656;2023-08-21T01:52:54;2.92;;;0.50;;
26963;SDS011;14521;48.148;-1.656;2023-08-21T01:56:16;0.70;;;0.28;;
26963;SDS011;14521;48.148;-1.656;2023-08-21T01:59:38;1.88;;;0.40;;
26963;SDS011;14521;48.148;-1.656;2023-08-21T02:03:00;5.65;;;0.50;;
26963;SDS011;14521;48.148;-1.656;2023-08-21T02:06:23;4.47;;;0.70;;
26963;SDS011;14521;48.148;-1.656;2023-08-21T02:09:45;3.22;;;0.52;;
26963;SDS011;14521;48.148;-1.656;2023-08-21T02:13:07;2.33;;;0.40;;
26963;SDS011;14521;48.148;-1.656;2023-08-21T02:16:30;2.03;;;0.50;;
26963;SDS011;14521;48.148;-1.656;2023-08-21T02:19:52;3.42;;;0.40;;
26963;SDS011;14521;48.148;-1.656;2023-08-21T02:23:14;4.43;;;0.60;;
26963;SDS011;14521;48.148;-1.656;2023-08-21T02:26:37;3.40;;;0.30;;
26963;SDS011;14521;48.148;-1.656;2023-08-21T02:29:59;3.13;;;0.50;;
26963;SDS011;14521;48.148;-1.656;2023-08-21T02:33:24;0.88;;;0.20;;
26963;SDS011;14521;48.148;-1.656;2023-08-21T02:36:46;4.03;;;0.30;;
26963;SDS011;14521;48.148;-1.656;2023-08-21T02:40:08;4.82;;;0.40;;
26963;SDS011;14521;48.148;-1.656;2023-08-21T02:43:31;2.83;;;0.57;;
26963;SDS011;14521;48.148;-1.656;2023-08-21T02:46:53;2.33;;;0.40;;
26963;SDS011;14521;48.148;-1.656;2023-08-21T02:50:16;3.95;;;0.45;;
26963;SDS011;14521;48.148;-1.656;2023-08-21T02:53:38;3.67;;;0.52;;
26963;SDS011;14521;48.148;-1.656;2023-08-21T02:57:01;4.65;;;0.55;;
26963;SDS011;14521;48.148;-1.656;2023-08-21T03:00:23;5.03;;;0.40;;
26963;SDS011;14521;48.148;-1.656;2023-08-21T03:03:46;3.78;;;0.70;;
26963;SDS011;14521;48.148;-1.656;2023-08-21T03:07:09;3.60;;;1.02;;
26963;SDS011;14521;48.148;-1.656;2023-08-21T03:10:31;1.98;;;0.50;;
26963;SDS011;14521;48.148;-1.656;2023-08-21T03:13:56;1.10;;;0.40;;
26963;SDS011;14521;48.148;-1.656;2023-08-21T03:17:18;3.70;;;0.52;;
26963;SDS011;14521;48.148;-1.656;2023-08-21T03:20:44;4.15;;;0.43;;
26963;SDS011;14521;48.148;-1.656;2023-08-21T03:24:07;1.42;;;0.35;;
26963;SDS011;14521;48.148;-1.656;2023-08-21T03:27:30;2.28;;;0.93;;
26963;SDS011;14521;48.148;-1.656;2023-08-21T03:30:52;2.47;;;0.70;;
26963;SDS011;14521;48.148;-1.656;2023-08-21T03:34:15;3.33;;;1.00;;
26963;SDS011;14521;48.148;-1.656;2023-08-21T03:37:37;5.78;;;1.10;;
26963;SDS011;14521;48.148;-1.656;2023-08-21T03:41:02;2.33;;;0.97;;
26963;SDS011;14521;48.148;-1.656;2023-08-21T03:44:24;5.63;;;1.35;;
26963;SDS011;14521;48.148;-1.656;2023-08-21T03:47:46;4.32;;;1.20;;
26963;SDS011;14521;48.148;-1.656;2023-08-21T03:51:13;5.63;;;1.20;;
26963;SDS011;14521;48.148;-1.656;2023-08-21T03:54:36;4.30;;;1.33;;
26963;SDS011;14521;48.148;-1.656;2023-08-21T03:57:58;5.78;;;1.38;;
26963;SDS011;14521;48.148;-1.656;2023-08-21T04:01:21;5.60;;;1.10;;
26963;SDS011;14521;48.148;-1.656;2023-08-21T04:04:44;1.83;;;1.17;;
26963;SDS011;14521;48.148;-1.656;2023-08-21T04:08:06;2.95;;;1.10;;
26963;SDS011;14521;48.148;-1.656;2023-08-21T04:11:28;6.05;;;1.30;;
26963;SDS011;14521;48.148;-1.656;2023-08-21T04:14:51;2.25;;;1.20;;
26963;SDS011;14521;48.148;-1.656;2023-08-21T04:18:13;3.38;;;1.20;;
26963;SDS011;14521;48.148;-1.656;2023-08-21T04:21:48;1.92;;;1.25;;
26963;SDS011;14521;48.148;-1.656;2023-08-21T04:25:11;2.50;;;1.13;;
26963;SDS011;14521;48.148;-1.656;2023-08-21T04:28:33;1.80;;;0.85;;
26963;SDS011;14521;48.148;-1.656;2023-08-21T04:31:57;2.42;;;0.85;;
26963;SDS011;14521;48.148;-1.656;2023-08-21T04:35:20;2.20;;;0.90;;
26963;SDS011;14521;48.148;-1.656;2023-08-21T04:38:42;0.93;;;0.82;;
26963;SDS011;14521;48.148;-1.656;2023-08-21T04:42:05;1.20;;;0.98;;
26963;SDS011;14521;48.148;-1.656;2023-08-21T04:45:28;2.63;;;1.13;;
26963;SDS011;14521;48.148;-1.656;2023-08-21T04:48:50;2.35;;;1.08;;
26963;SDS011;14521;48.148;-1.656;2023-08-21T04:52:12;2.15;;;0.90;;
26963;SDS011;14521;48.148;-1.656;2023-08-21T04:55:35;1.63;;;0.80;;
26963;SDS011;14521;48.148;-1.656;2023-08-21T04:58:58;1.17;;;1.17;;
26963;SDS011;14521;48.148;-1.656;2023-08-21T05:02:23;1.63;;;0.55;;
26963;SDS011;14521;48.148;-1.656;2023-08-21T05:05:53;0.55;;;0.50;;
26963;SDS011;14521;48.148;-1.656;2023-08-21T05:09:17;0.57;;;0.57;;
26963;SDS011;14521;48.148;-1.656;2023-08-21T05:12:39;0.50;;;0.50;;
26963;SDS011;14521;48.148;-1.656;2023-08-21T05:16:02;1.95;;;0.60;;
26963;SDS011;14521;48.148;-1.656;2023-08-21T05:19:29;6.43;;;0.73;;
26963;SDS011;14521;48.148;-1.656;2023-08-21T05:22:51;0.85;;;0.80;;
26963;SDS011;14521;48.148;-1.656;2023-08-21T05:26:14;0.80;;;0.80;;
26963;SDS011;14521;48.148;-1.656;2023-08-21T05:29:36;1.13;;;0.85;;
26963;SDS011;14521;48.148;-1.656;2023-08-21T05:32:59;1.35;;;0.65;;
26963;SDS011;14521;48.148;-1.656;2023-08-21T05:36:21;0.60;;;0.60;;
26963;SDS011;14521;48.148;-1.656;2023-08-21T05:39:43;0.77;;;0.77;;
26963;SDS011;14521;48.148;-1.656;2023-08-21T05:43:07;4.72;;;0.60;;
26963;SDS011;14521;48.148;-1.656;2023-08-21T05:46:32;1.80;;;0.70;;
26963;SDS011;14521;48.148;-1.656;2023-08-21T05:49:54;4.28;;;0.63;;
26963;SDS011;14521;48.148;-1.656;2023-08-21T05:53:17;0.55;;;0.50;;
26963;SDS011;14521;48.148;-1.656;2023-08-21T05:56:39;1.42;;;0.35;;
26963;SDS011;14521;48.148;-1.656;2023-08-21T06:00:01;1.98;;;0.30;;
26963;SDS011;14521;48.148;-1.656;2023-08-21T06:03:35;0.50;;;0.40;;
26963;SDS011;14521;48.148;-1.656;2023-08-21T06:07:14;0.57;;;0.50;;
26963;SDS011;14521;48.148;-1.656;2023-08-21T06:10:37;0.93;;;0.30;;
26963;SDS011;14521;48.148;-1.656;2023-08-21T06:13:59;0.20;;;0.20;;
26963;SDS011;14521;48.148;-1.656;2023-08-21T06:17:21;0.20;;;0.20;;
26963;SDS011;14521;48.148;-1.656;2023-08-21T06:20:44;4.30;;;0.50;;
26963;SDS011;14521;48.148;-1.656;2023-08-21T06:24:06;1.63;;;0.50;;
26963;SDS011;14521;48.148;-1.656;2023-08-21T06:27:29;1.55;;;0.47;;
26963;SDS011;14521;48.148;-1.656;2023-08-21T06:30:55;0.30;;;0.30;;
26963;SDS011;14521;48.148;-1.656;2023-08-21T06:34:19;0.30;;;0.30;;
26963;SDS011;14521;48.148;-1.656;2023-08-21T06:37:42;0.98;;;0.30;;
26963;SDS011;14521;48.148;-1.656;2023-08-21T06:41:04;0.32;;;0.32;;
26963;SDS011;14521;48.148;-1.656;2023-08-21T06:44:33;1.17;;;0.30;;
26963;SDS011;14521;48.148;-1.656;2023-08-21T06:47:55;0.30;;;0.20;;
26963;SDS011;14521;48.148;-1.656;2023-08-21T06:51:18;2.20;;;0.30;;
26963;SDS011;14521;48.148;-1.656;2023-08-21T06:54:40;0.22;;;0.20;;
26963;SDS011;14521;48.148;-1.656;2023-08-21T06:58:02;0.40;;;0.30;;
26963;SDS011;14521;48.148;-1.656;2023-08-21T07:01:25;0.50;;;0.30;;
26963;SDS011;14521;48.148;-1.656;2023-08-21T07:04:47;0.73;;;0.50;;
26963;SDS011;14521;48.148;-1.656;2023-08-21T07:08:10;2.50;;;0.30;;
26963;SDS011;14521;48.148;-1.656;2023-08-21T07:11:32;0.75;;;0.20;;
26963;SDS011;14521;48.148;-1.656;2023-08-21T07:14:54;0.68;;;0.47;;
26963;SDS011;14521;48.148;-1.656;2023-08-21T07:18:16;0.68;;;0.30;;
26963;SDS011;14521;48.148;-1.656;2023-08-21T07:21:39;9.38;;;0.40;;
26963;SDS011;14521;48.148;-1.656;2023-08-21T07:25:01;1.80;;;0.20;;
26963;SDS011;14521;48.148;-1.656;2023-08-21T07:28:26;1.40;;;0.32;;
26963;SDS011;14521;48.148;-1.656;2023-08-21T07:31:48;0.40;;;0.20;;
26963;SDS011;14521;48.148;-1.656;2023-08-21T07:35:10;1.85;;;0.30;;
26963;SDS011;14521;48.148;-1.656;2023-08-21T07:38:33;1.50;;;0.40;;
26963;SDS011;14521;48.148;-1.656;2023-08-21T07:41:55;1.55;;;0.30;;
26963;SDS011;14521;48.148;-1.656;2023-08-21T07:45:18;1.60;;;0.40;;
26963;SDS011;14521;48.148;-1.656;2023-08-21T07:48:40;0.63;;;0.20;;
26963;SDS011;14521;48.148;-1.656;2023-08-21T07:52:03;0.45;;;0.30;;
26963;SDS011;14521;48.148;-1.656;2023-08-21T07:55:26;2.42;;;0.30;;
26963;SDS011;14521;48.148;-1.656;2023-08-21T07:58:48;0.45;;;0.20;;
26963;SDS011;14521;48.148;-1.656;2023-08-21T08:02:10;1.38;;;0.40;;
26963;SDS011;14521;48.148;-1.656;2023-08-21T08:05:36;0.63;;;0.25;;
26963;SDS011;14521;48.148;-1.656;2023-08-21T08:08:59;2.67;;;0.20;;
26963;SDS011;14521;48.148;-1.656;2023-08-21T08:12:21;3.20;;;0.25;;
26963;SDS011;14521;48.148;-1.656;2023-08-21T08:15:44;2.65;;;0.50;;
26963;SDS011;14521;48.148;-1.656;2023-08-21T08:19:06;2.30;;;0.30;;
26963;SDS011;14521;48.148;-1.656;2023-08-21T08:22:29;1.92;;;0.40;;
26963;SDS011;14521;48.148;-1.656;2023-08-21T08:25:51;1.98;;;0.40;;
26963;SDS011;14521;48.148;-1.656;2023-08-21T08:29:14;3.17;;;0.40;;
26963;SDS011;14521;48.148;-1.656;2023-08-21T08:32:37;8.63;;;0.60;;
26963;SDS011;14521;48.148;-1.656;2023-08-21T08:36:00;3.63;;;1.23;;
26963;SDS011;14521;48.148;-1.656;2023-08-21T08:39:22;1.85;;;0.38;;
26963;SDS011;14521;48.148;-1.656;2023-08-21T08:42:44;1.98;;;0.50;;
26963;SDS011;14521;48.148;-1.656;2023-08-21T08:46:08;3.13;;;0.50;;
26963;SDS011;14521;48.148;-1.656;2023-08-21T08:49:31;5.78;;;0.85;;
26963;SDS011;14521;48.148;-1.656;2023-08-21T08:52:54;1.27;;;0.30;;
26963;SDS011;14521;48.148;-1.656;2023-08-21T08:56:31;2.95;;;0.73;;
26963;SDS011;14521;48.148;-1.656;2023-08-21T08:59:53;1.58;;;0.50;;
26963;SDS011;14521;48.148;-1.656;2023-08-21T09:03:15;3.72;;;0.60;;
26963;SDS011;14521;48.148;-1.656;2023-08-21T09:06:38;3.08;;;0.43;;
26963;SDS011;14521;48.148;-1.656;2023-08-21T09:10:00;3.40;;;0.50;;
26963;SDS011;14521;48.148;-1.656;2023-08-21T09:13:26;3.42;;;0.50;;
26963;SDS011;14521;48.148;-1.656;2023-08-21T09:17:00;2.20;;;0.60;;
26963;SDS011;14521;48.148;-1.656;2023-08-21T09:20:26;1.17;;;0.60;;
26963;SDS011;14521;48.148;-1.656;2023-08-21T09:23:48;2.60;;;0.60;;
26963;SDS011;14521;48.148;-1.656;2023-08-21T09:27:18;3.38;;;0.60;;
26963;SDS011;14521;48.148;-1.656;2023-08-21T09:30:47;4.65;;;0.52;;
26963;SDS011;14521;48.148;-1.656;2023-08-21T09:34:11;4.40;;;0.52;;
26963;SDS011;14521;48.148;-1.656;2023-08-21T09:37:33;2.60;;;0.63;;
26963;SDS011;14521;48.148;-1.656;2023-08-21T09:40:56;6.85;;;0.68;;
26963;SDS011;14521;48.148;-1.656;2023-08-21T09:44:18;1.50;;;0.60;;
26963;SDS011;14521;48.148;-1.656;2023-08-21T09:47:40;4.70;;;0.55;;
26963;SDS011;14521;48.148;-1.656;2023-08-21T09:51:03;6.28;;;0.70;;
26963;SDS011;14521;48.148;-1.656;2023-08-21T09:54:26;3.38;;;0.60;;
26963;SDS011;14521;48.148;-1.656;2023-08-21T09:57:49;2.30;;;0.50;;
26963;SDS011;14521;48.148;-1.656;2023-08-21T10:01:20;1.05;;;0.60;;
26963;SDS011;14521;48.148;-1.656;2023-08-21T10:04:43;4.05;;;0.77;;
26963;SDS011;14521;48.148;-1.656;2023-08-21T10:08:08;6.40;;;0.73;;
26963;SDS011;14521;48.148;-1.656;2023-08-21T10:11:31;4.38;;;0.50;;
26963;SDS011;14521;48.148;-1.656;2023-08-21T10:14:53;2.05;;;0.57;;
26963;SDS011;14521;48.148;-1.656;2023-08-21T10:18:23;2.92;;;0.80;;
26963;SDS011;14521;48.148;-1.656;2023-08-21T10:21:51;6.45;;;0.85;;
26963;SDS011;14521;48.148;-1.656;2023-08-21T10:25:18;1.95;;;0.68;;
26963;SDS011;14521;48.148;-1.656;2023-08-21T10:28:52;2.72;;;0.90;;
26963;SDS011;14521;48.148;-1.656;2023-08-21T10:35:43;6.60;;;0.70;;
26963;SDS011;14521;48.148;-1.656;2023-08-21T10:39:18;5.30;;;0.60;;
26963;SDS011;14521;48.148;-1.656;2023-08-21T10:42:45;2.15;;;0.80;;
26963;SDS011;14521;48.148;-1.656;2023-08-21T10:46:07;3.05;;;0.77;;
26963;SDS011;14521;48.148;-1.656;2023-08-21T10:49:30;3.53;;;0.63;;
26963;SDS011;14521;48.148;-1.656;2023-08-21T10:52:55;4.55;;;0.70;;
26963;SDS011;14521;48.148;-1.656;2023-08-21T10:56:18;2.00;;;0.60;;
26963;SDS011;14521;48.148;-1.656;2023-08-21T10:59:50;2.67;;;0.50;;
26963;SDS011;14521;48.148;-1.656;2023-08-21T11:03:14;1.10;;;0.50;;
26963;SDS011;14521;48.148;-1.656;2023-08-21T11:06:37;4.53;;;0.65;;
26963;SDS011;14521;48.148;-1.656;2023-08-21T11:10:00;4.47;;;0.70;;
26963;SDS011;14521;48.148;-1.656;2023-08-21T11:13:23;3.05;;;0.70;;
26963;SDS011;14521;48.148;-1.656;2023-08-21T11:16:46;8.40;;;0.80;;
26963;SDS011;14521;48.148;-1.656;2023-08-21T11:20:08;2.83;;;0.50;;
26963;SDS011;14521;48.148;-1.656;2023-08-21T11:23:37;4.43;;;0.70;;
26963;SDS011;14521;48.148;-1.656;2023-08-21T11:27:01;1.63;;;0.60;;
26963;SDS011;14521;48.148;-1.656;2023-08-21T11:30:26;2.33;;;0.63;;
26963;SDS011;14521;48.148;-1.656;2023-08-21T11:33:49;1.77;;;0.50;;
26963;SDS011;14521;48.148;-1.656;2023-08-21T11:37:12;3.35;;;0.40;;
26963;SDS011;14521;48.148;-1.656;2023-08-21T11:40:34;0.93;;;0.52;;
26963;SDS011;14521;48.148;-1.656;2023-08-21T11:44:01;1.80;;;0.65;;
26963;SDS011;14521;48.148;-1.656;2023-08-21T11:47:34;3.13;;;0.70;;
26963;SDS011;14521;48.148;-1.656;2023-08-21T11:50:57;1.73;;;0.40;;
26963;SDS011;14521;48.148;-1.656;2023-08-21T11:54:20;1.92;;;0.52;;
26963;SDS011;14521;48.148;-1.656;2023-08-21T11:57:48;0.90;;;0.43;;
26963;SDS011;14521;48.148;-1.656;2023-08-21T12:01:18;6.38;;;0.70;;
26963;SDS011;14521;48.148;-1.656;2023-08-21T12:04:42;2.63;;;0.50;;
26963;SDS011;14521;48.148;-1.656;2023-08-21T12:08:05;2.35;;;0.50;;
26963;SDS011;14521;48.148;-1.656;2023-08-21T12:11:28;3.90;;;0.65;;
26963;SDS011;14521;48.148;-1.656;2023-08-21T12:14:51;2.58;;;0.60;;
26963;SDS011;14521;48.148;-1.656;2023-08-21T12:18:13;5.50;;;0.55;;
26963;SDS011;14521;48.148;-1.656;2023-08-21T12:21:35;1.83;;;0.52;;
26963;SDS011;14521;48.148;-1.656;2023-08-21T12:24:59;1.73;;;0.40;;
26963;SDS011;14521;48.148;-1.656;2023-08-21T12:28:21;1.92;;;0.40;;
26963;SDS011;14521;48.148;-1.656;2023-08-21T12:31:43;2.20;;;0.50;;
26963;SDS011;14521;48.148;-1.656;2023-08-21T12:35:06;1.05;;;0.43;;
26963;SDS011;14521;48.148;-1.656;2023-08-21T12:38:29;1.63;;;0.57;;
26963;SDS011;14521;48.148;-1.656;2023-08-21T12:41:51;4.63;;;0.57;;
26963;SDS011;14521;48.148;-1.656;2023-08-21T12:45:13;2.25;;;0.50;;
26963;SDS011;14521;48.148;-1.656;2023-08-21T12:48:36;3.65;;;0.50;;
26963;SDS011;14521;48.148;-1.656;2023-08-21T12:51:58;1.98;;;0.52;;
26963;SDS011;14521;48.148;-1.656;2023-08-21T12:55:20;1.65;;;0.32;;
26963;SDS011;14521;48.148;-1.656;2023-08-21T12:58:43;3.95;;;0.50;;
26963;SDS011;14521;48.148;-1.656;2023-08-21T13:02:06;1.38;;;0.50;;
26963;SDS011;14521;48.148;-1.656;2023-08-21T13:05:29;1.00;;;0.47;;
26963;SDS011;14521;48.148;-1.656;2023-08-21T13:08:52;2.90;;;0.30;;
26963;SDS011;14521;48.148;-1.656;2023-08-21T13:12:15;10.07;;;0.50;;
26963;SDS011;14521;48.148;-1.656;2023-08-21T13:15:38;0.47;;;0.30;;
26963;SDS011;14521;48.148;-1.656;2023-08-21T13:19:00;1.48;;;0.50;;
26963;SDS011;14521;48.148;-1.656;2023-08-21T13:22:22;3.08;;;0.50;;
26963;SDS011;14521;48.148;-1.656;2023-08-21T13:25:45;3.25;;;0.50;;
26963;SDS011;14521;48.148;-1.656;2023-08-21T13:29:07;2.70;;;0.50;;
26963;SDS011;14521;48.148;-1.656;2023-08-21T13:32:29;2.58;;;0.30;;
26963;SDS011;14521;48.148;-1.656;2023-08-21T13:35:52;3.28;;;0.50;;
26963;SDS011;14521;48.148;-1.656;2023-08-21T13:39:14;2.28;;;0.40;;
26963;SDS011;14521;48.148;-1.656;2023-08-21T13:42:37;2.53;;;0.40;;
26963;SDS011;14521;48.148;-1.656;2023-08-21T13:46:02;1.10;;;0.30;;
26963;SDS011;14521;48.148;-1.656;2023-08-21T13:49:27;2.38;;;0.57;;
26963;SDS011;14521;48.148;-1.656;2023-08-21T13:52:50;3.95;;;0.50;;
26963;SDS011;14521;48.148;-1.656;2023-08-21T13:56:12;1.38;;;0.60;;
26963;SDS011;14521;48.148;-1.656;2023-08-21T13:59:35;5.95;;;0.68;;
26963;SDS011;14521;48.148;-1.656;2023-08-21T14:02:57;1.02;;;0.47;;
26963;SDS011;14521;48.148;-1.656;2023-08-21T14:06:20;2.03;;;0.25;;
26963;SDS011;14521;48.148;-1.656;2023-08-21T14:09:42;1.08;;;0.47;;
26963;SDS011;14521;48.148;-1.656;2023-08-21T14:13:04;1.70;;;0.40;;
26963;SDS011;14521;48.148;-1.656;2023-08-21T14:19:51;1.75;;;0.35;;
26963;SDS011;14521;48.148;-1.656;2023-08-21T14:23:14;2.03;;;0.35;;
26963;SDS011;14521;48.148;-1.656;2023-08-21T14:26:37;2.55;;;0.43;;
26963;SDS011;14521;48.148;-1.656;2023-08-21T14:30:01;0.98;;;0.30;;
26963;SDS011;14521;48.148;-1.656;2023-08-21T14:33:25;4.63;;;0.70;;
26963;SDS011;14521;48.148;-1.656;2023-08-21T14:36:47;3.45;;;0.52;;
26963;SDS011;14521;48.148;-1.656;2023-08-21T14:40:10;2.55;;;1.00;;
26963;SDS011;14521;48.148;-1.656;2023-08-21T14:43:32;3.45;;;0.40;;
26963;SDS011;14521;48.148;-1.656;2023-08-21T14:46:55;0.43;;;0.30;;
26963;SDS011;14521;48.148;-1.656;2023-08-21T14:50:23;0.52;;;0.30;;
26963;SDS011;14521;48.148;-1.656;2023-08-21T14:53:45;1.70;;;0.52;;
26963;SDS011;14521;48.148;-1.656;2023-08-21T14:57:07;2.08;;;0.40;;
26963;SDS011;14521;48.148;-1.656;2023-08-21T15:00:30;1.92;;;0.55;;
26963;SDS011;14521;48.148;-1.656;2023-08-21T15:03:52;5.78;;;0.40;;
26963;SDS011;14521;48.148;-1.656;2023-08-21T15:07:14;0.20;;;0.20;;
26963;SDS011;14521;48.148;-1.656;2023-08-21T15:10:36;3.45;;;0.35;;
26963;SDS011;14521;48.148;-1.656;2023-08-21T15:14:01;6.13;;;0.47;;
26963;SDS011;14521;48.148;-1.656;2023-08-21T15:17:24;0.88;;;0.45;;
26963;SDS011;14521;48.148;-1.656;2023-08-21T15:20:46;4.18;;;0.50;;
26963;SDS011;14521;48.148;-1.656;2023-08-21T15:24:10;0.30;;;0.20;;
26963;SDS011;14521;48.148;-1.656;2023-08-21T15:27:32;3.00;;;0.50;;
26963;SDS011;14521;48.148;-1.656;2023-08-21T15:30:54;1.75;;;0.32;;
26963;SDS011;14521;48.148;-1.656;2023-08-21T15:34:17;2.25;;;0.40;;
26963;SDS011;14521;48.148;-1.656;2023-08-21T15:37:39;0.38;;;0.30;;
26963;SDS011;14521;48.148;-1.656;2023-08-21T15:41:02;0.80;;;0.30;;
26963;SDS011;14521;48.148;-1.656;2023-08-21T15:44:24;2.22;;;0.40;;
26963;SDS011;14521;48.148;-1.656;2023-08-21T15:47:46;1.48;;;0.47;;
26963;SDS011;14521;48.148;-1.656;2023-08-21T15:51:12;2.67;;;0.35;;
26963;SDS011;14521;48.148;-1.656;2023-08-21T15:54:34;0.60;;;0.35;;
26963;SDS011;14521;48.148;-1.656;2023-08-21T15:57:59;2.83;;;0.38;;
26963;SDS011;14521;48.148;-1.656;2023-08-21T16:01:21;3.70;;;0.57;;
26963;SDS011;14521;48.148;-1.656;2023-08-21T16:04:43;0.73;;;0.38;;
26963;SDS011;14521;48.148;-1.656;2023-08-21T16:08:06;1.83;;;0.55;;
26963;SDS011;14521;48.148;-1.656;2023-08-21T16:11:28;0.50;;;0.28;;
26963;SDS011;14521;48.148;-1.656;2023-08-21T16:14:51;0.90;;;0.50;;
26963;SDS011;14521;48.148;-1.656;2023-08-21T16:18:13;0.52;;;0.30;;
26963;SDS011;14521;48.148;-1.656;2023-08-21T16:21:36;2.55;;;0.40;;
26963;SDS011;14521;48.148;-1.656;2023-08-21T16:24:58;1.50;;;0.30;;
26963;SDS011;14521;48.148;-1.656;2023-08-21T16:28:22;2.97;;;0.47;;
26963;SDS011;14521;48.148;-1.656;2023-08-21T16:31:44;5.88;;;0.50;;
26963;SDS011;14521;48.148;-1.656;2023-08-21T16:35:06;5.20;;;0.47;;
26963;SDS011;14521;48.148;-1.656;2023-08-21T16:38:29;2.55;;;0.40;;
26963;SDS011;14521;48.148;-1.656;2023-08-21T16:41:51;4.68;;;0.25;;
26963;SDS011;14521;48.148;-1.656;2023-08-21T16:45:14;2.55;;;0.40;;
26963;SDS011;14521;48.148;-1.656;2023-08-21T16:48:37;1.43;;;0.40;;
26963;SDS011;14521;48.148;-1.656;2023-08-21T16:52:00;2.83;;;0.40;;
26963;SDS011;14521;48.148;-1.656;2023-08-21T16:55:22;3.45;;;0.40;;
26963;SDS011;14521;48.148;-1.656;2023-08-21T16:58:44;2.53;;;0.30;;
26963;SDS011;14521;48.148;-1.656;2023-08-21T17:02:06;0.90;;;0.40;;
26963;SDS011;14521;48.148;-1.656;2023-08-21T17:05:29;2.13;;;0.50;;
26963;SDS011;14521;48.148;-1.656;2023-08-21T17:08:52;2.05;;;0.40;;
26963;SDS011;14521;48.148;-1.656;2023-08-21T17:12:14;1.10;;;0.32;;
26963;SDS011;14521;48.148;-1.656;2023-08-21T17:15:36;1.35;;;0.30;;
26963;SDS011;14521;48.148;-1.656;2023-08-21T17:18:59;0.80;;;0.40;;
26963;SDS011;14521;48.148;-1.656;2023-08-21T17:22:22;0.50;;;0.30;;
26963;SDS011;14521;48.148;-1.656;2023-08-21T17:25:45;1.60;;;0.50;;
26963;SDS011;14521;48.148;-1.656;2023-08-21T17:29:07;1.10;;;0.32;;
26963;SDS011;14521;48.148;-1.656;2023-08-21T17:32:30;2.05;;;0.30;;
26963;SDS011;14521;48.148;-1.656;2023-08-21T17:35:52;0.65;;;0.40;;
26963;SDS011;14521;48.148;-1.656;2023-08-21T17:39:14;8.88;;;0.50;;
26963;SDS011;14521;48.148;-1.656;2023-08-21T17:42:37;0.90;;;0.40;;
26963;SDS011;14521;48.148;-1.656;2023-08-21T17:45:59;1.90;;;0.40;;
26963;SDS011;14521;48.148;-1.656;2023-08-21T17:49:22;0.50;;;0.40;;
26963;SDS011;14521;48.148;-1.656;2023-08-21T17:52:52;2.42;;;0.30;;
26963;SDS011;14521;48.148;-1.656;2023-08-21T17:56:14;2.28;;;0.43;;
26963;SDS011;14521;48.148;-1.656;2023-08-21T17:59:36;0.50;;;0.20;;
26963;SDS011;14521;48.148;-1.656;2023-08-21T18:02:58;0.73;;;0.45;;
26963;SDS011;14521;48.148;-1.656;2023-08-21T18:06:21;2.17;;;0.43;;
26963;SDS011;14521;48.148;-1.656;2023-08-21T18:09:43;2.67;;;0.30;;
26963;SDS011;14521;48.148;-1.656;2023-08-21T18:13:06;1.67;;;0.40;;
26963;SDS011;14521;48.148;-1.656;2023-08-21T18:16:28;0.90;;;0.38;;
26963;SDS011;14521;48.148;-1.656;2023-08-21T18:19:53;4.22;;;0.63;;
26963;SDS011;14521;48.148;-1.656;2023-08-21T18:23:16;2.70;;;0.45;;
26963;SDS011;14521;48.148;-1.656;2023-08-21T18:26:39;1.20;;;0.52;;
26963;SDS011;14521;48.148;-1.656;2023-08-21T18:30:03;2.42;;;0.50;;
26963;SDS011;14521;48.148;-1.656;2023-08-21T18:33:26;1.90;;;0.40;;
26963;SDS011;14521;48.148;-1.656;2023-08-21T18:36:49;0.75;;;0.38;;
26963;SDS011;14521;48.148;-1.656;2023-08-21T18:40:11;1.85;;;0.80;;
26963;SDS011;14521;48.148;-1.656;2023-08-21T18:43:33;4.90;;;0.70;;
26963;SDS011;14521;48.148;-1.656;2023-08-21T18:46:57;0.82;;;0.30;;
26963;SDS011;14521;48.148;-1.656;2023-08-21T18:50:20;2.57;;;0.50;;
26963;SDS011;14521;48.148;-1.656;2023-08-21T18:53:53;1.27;;;0.50;;
26963;SDS011;14521;48.148;-1.656;2023-08-21T18:57:15;3.65;;;0.73;;
26963;SDS011;14521;48.148;-1.656;2023-08-21T19:00:38;1.48;;;0.70;;
26963;SDS011;14521;48.148;-1.656;2023-08-21T19:04:00;2.50;;;0.50;;
26963;SDS011;14521;48.148;-1.656;2023-08-21T19:07:22;3.85;;;0.35;;
26963;SDS011;14521;48.148;-1.656;2023-08-21T19:10:45;1.65;;;0.57;;
26963;SDS011;14521;48.148;-1.656;2023-08-21T19:14:10;1.90;;;0.50;;
26963;SDS011;14521;48.148;-1.656;2023-08-21T19:17:33;1.77;;;0.80;;
26963;SDS011;14521;48.148;-1.656;2023-08-21T19:20:56;2.65;;;0.85;;
26963;SDS011;14521;48.148;-1.656;2023-08-21T19:24:20;1.83;;;0.82;;
26963;SDS011;14521;48.148;-1.656;2023-08-21T19:27:42;3.72;;;0.65;;
26963;SDS011;14521;48.148;-1.656;2023-08-21T19:31:08;1.45;;;0.45;;
26963;SDS011;14521;48.148;-1.656;2023-08-21T19:34:30;1.83;;;0.98;;
26963;SDS011;14521;48.148;-1.656;2023-08-21T19:37:53;2.58;;;0.63;;
26963;SDS011;14521;48.148;-1.656;2023-08-21T19:41:15;1.90;;;0.60;;
26963;SDS011;14521;48.148;-1.656;2023-08-21T19:44:38;1.67;;;0.63;;
26963;SDS011;14521;48.148;-1.656;2023-08-21T19:48:01;1.92;;;0.57;;
26963;SDS011;14521;48.148;-1.656;2023-08-21T19:51:24;6.68;;;0.82;;
26963;SDS011;14521;48.148;-1.656;2023-08-21T19:54:46;1.88;;;0.70;;
26963;SDS011;14521;48.148;-1.656;2023-08-21T19:58:08;3.35;;;0.70;;
26963;SDS011;14521;48.148;-1.656;2023-08-21T20:01:30;4.10;;;0.75;;
26963;SDS011;14521;48.148;-1.656;2023-08-21T20:04:53;3.58;;;0.90;;
26963;SDS011;14521;48.148;-1.656;2023-08-21T20:08:15;3.10;;;1.63;;
26963;SDS011;14521;48.148;-1.656;2023-08-21T20:11:38;4.47;;;1.80;;
26963;SDS011;14521;48.148;-1.656;2023-08-21T20:15:02;10.35;;;2.72;;